Time;durP1;ratioP1;P1;durP2;ratioP2;P2;SDS_P1;SDS_P2;PMS_P1;PMS_P2;Temp;Humidity;BMP_temperature;BMP_pressure;BME280_temperature;BME280_humidity;BME280_pressure;Samples;Min_cycle;Max_cycle;Signal;HPM_P1;HPM_P2
2021/01/10 00:00:45;;;;;;;95.68;26.13;;;;;;;;;;6222681;23;20024;-87
2021/01/10 00:03:35;;;;;;;56.50;21.40;;;;;;;;;;6233113;23;20025;-89
2021/01/10 00:06:45;;;;;;;103.50;23.52;;;;;;;;;;6212593;23;20023;-89
2021/01/10 00:09:28;;;;;;;112.38;23.40;;;;;;;;;;6208823;23;20031;-90
2021/01/10 00:12:03;;;;;;;50.15;19.25;;;;;;;;;;6237091;23;20021;-89
2021/01/10 00:14:48;;;;;;;89.13;22.38;;;;;;;;;;6213449;23;20026;-89
2021/01/10 00:17:37;;;;;;;83.03;24.35;;;;;;;;;;6231777;23;20021;-89
2021/01/10 00:20:11;;;;;;;154.57;32.95;;;;;;;;;;6231520;23;20024;-88
2021/01/10 00:22:53;;;;;;;98.30;25.92;;;;;;;;;;6229480;23;20031;-87
2021/01/10 00:25:36;;;;;;;108.65;25.05;;;;;;;;;;6203223;23;20016;-88
2021/01/10 00:28:14;;;;;;;110.13;25.60;;;;;;;;;;6230877;23;20012;-89
2021/01/10 00:31:30;;;;;;;75.03;20.48;;;;;;;;;;6214438;23;20028;-88
2021/01/10 00:34:06;;;;;;;84.57;20.80;;;;;;;;;;6232975;23;20335;-88
2021/01/10 00:36:40;;;;;;;92.22;22.15;;;;;;;;;;6208881;23;20355;-88
2021/01/10 00:39:28;;;;;;;63.72;21.02;;;;;;;;;;6230997;23;20016;-89
2021/01/10 00:42:29;;;;;;;73.40;21.33;;;;;;;;;;6215742;23;20009;-89
2021/01/10 00:45:15;;;;;;;69.68;21.48;;;;;;;;;;6212386;23;20019;-89
2021/01/10 00:48:06;;;;;;;97.00;23.65;;;;;;;;;;6234262;23;20020;-87
2021/01/10 00:50:58;;;;;;;151.45;26.10;;;;;;;;;;6240062;23;20015;-89
2021/01/10 00:53:39;;;;;;;80.45;22.20;;;;;;;;;;6212608;23;20020;-89
2021/01/10 00:56:14;;;;;;;167.70;28.40;;;;;;;;;;6209703;23;20020;-87
2021/01/10 00:59:04;;;;;;;86.80;21.75;;;;;;;;;;6255883;23;20020;-89
2021/01/10 01:01:49;;;;;;;109.40;24.40;;;;;;;;;;6215828;23;20026;-88
2021/01/10 01:04:35;;;;;;;69.78;22.38;;;;;;;;;;6222827;23;20064;-86
2021/01/10 01:07:28;;;;;;;85.50;23.98;;;;;;;;;;6201795;23;20061;-86
2021/01/10 01:10:12;;;;;;;79.35;20.75;;;;;;;;;;6248015;23;20027;-88
2021/01/10 01:12:53;;;;;;;118.35;26.98;;;;;;;;;;6242126;23;20004;-88
2021/01/10 01:15:41;;;;;;;127.75;25.83;;;;;;;;;;6247045;23;20024;-88
2021/01/10 01:18:31;;;;;;;98.90;21.75;;;;;;;;;;6234441;23;20035;-88
2021/01/10 01:21:06;;;;;;;113.38;24.83;;;;;;;;;;6212274;23;20016;-88
2021/01/10 01:23:37;;;;;;;85.38;22.50;;;;;;;;;;6236809;23;20083;-89
2021/01/10 01:26:26;;;;;;;86.25;23.85;;;;;;;;;;6219862;23;20024;-88
2021/01/10 01:29:04;;;;;;;82.20;20.08;;;;;;;;;;6213709;23;20022;-88
2021/01/10 01:31:42;;;;;;;58.92;19.17;;;;;;;;;;6237815;23;20016;-87
2021/01/10 01:34:27;;;;;;;157.73;28.50;;;;;;;;;;6241698;23;20012;-89
2021/01/10 01:37:34;;;;;;;69.38;19.15;;;0.00;99.90;;;;;;6230952;23;20016;-89
2021/01/10 01:40:23;;;;;;;112.35;27.00;;;;;;;;;;6189207;23;20012;-88
2021/01/10 01:43:09;;;;;;;104.75;26.30;;;;;;;;;;6214224;23;20289;-88
2021/01/10 01:45:56;;;;;;;74.03;19.30;;;;;;;;;;6236310;23;20019;-89
2021/01/10 01:48:51;;;;;;;64.15;21.52;;;-0.20;99.90;;;;;;6210971;23;20016;-87
2021/01/10 01:51:27;;;;;;;48.90;18.23;;;;;;;;;;6263279;23;20008;-87
2021/01/10 01:54:09;;;;;;;132.77;21.53;;;;;;;;;;6214720;23;20024;-89
2021/01/10 01:56:52;;;;;;;64.78;17.13;;;;;;;;;;6213070;23;20016;-87
2021/01/10 01:59:42;;;;;;;87.93;21.70;;;-0.10;99.90;;;;;;6212578;23;20028;-88
2021/01/10 02:02:25;;;;;;;67.88;15.25;;;;;;;;;;6190965;23;20012;-89
2021/01/10 02:05:11;;;;;;;88.00;19.98;;;;;;;;;;6241782;23;20027;-87
2021/01/10 02:08:08;;;;;;;94.53;18.98;;;-0.20;99.90;;;;;;6261321;22;20027;-87
2021/01/10 02:11:04;;;;;;;77.78;19.65;;;-0.10;99.90;;;;;;6262750;22;20030;-88
2021/01/10 02:13:58;;;;;;;71.63;18.63;;;;;;;;;;6239158;23;20308;-89
2021/01/10 02:17:00;;;;;;;97.32;20.52;;;-0.10;99.90;;;;;;6212501;23;20014;-88
2021/01/10 02:20:11;;;;;;;138.98;25.23;;;-2.40;99.90;;;;;;6240529;23;20026;-88
2021/01/10 02:23:06;;;;;;;40.95;13.18;;;;;;;;;;6228674;23;20016;-90
2021/01/10 02:25:46;;;;;;;137.63;25.17;;;-0.20;99.90;;;;;;6210708;23;20018;-90
2021/01/10 02:29:45;;;;;;;82.43;19.98;;;;;;;;;;5109366;27;20402;-90
2021/01/10 02:32:33;;;;;;;103.78;19.75;;;;;;;;;;5087484;28;20058;-93
2021/01/10 02:35:08;;;;;;;72.45;18.33;;;;;;;;;;5069609;28;20055;-91
2021/01/10 02:38:14;;;;;;;104.18;21.23;;;;;;;;;;5103945;28;20040;-91
2021/01/10 02:41:40;;;;;;;111.75;22.05;;;-0.30;99.90;;;;;;5083884;28;20048;-90
2021/01/10 02:44:20;;;;;;;50.88;14.48;;;;;;;;;;5085719;28;20044;-92
2021/01/10 02:47:00;;;;;;;47.67;19.58;;;;;;;;;;5080846;28;20059;-90
2021/01/10 02:49:43;;;;;;;67.00;17.30;;;;;;;;;;5087638;28;20048;-91
2021/01/10 02:52:15;;;;;;;68.15;20.58;;;;;;;;;;5072309;28;20041;-90
2021/01/10 02:55:03;;;;;;;59.38;17.48;;;;;;;;;;5088102;28;20052;-91
2021/01/10 02:58:03;;;;;;;60.03;18.73;;;;;;;;;;5093602;28;20052;-89
2021/01/10 03:00:39;;;;;;;47.17;17.85;;;;;;;;;;5072035;28;20059;-91
2021/01/10 03:03:26;;;;;;;42.75;17.23;;;;;;;;;;5098672;28;20049;-90
2021/01/10 03:06:13;;;;;;;55.03;17.08;;;;;;;;;;5069064;28;20036;-91
2021/01/10 03:08:48;;;;;;;53.30;17.15;;;;;;;;;;5086652;28;20053;-91
2021/01/10 03:11:20;;;;;;;75.20;18.20;;;;;;;;;;5101900;28;20359;-92
2021/01/10 03:14:25;;;;;;;46.70;14.85;;;;;;;;;;5101266;28;20055;-90
2021/01/10 03:17:19;;;;;;;47.38;16.83;;;;;;;;;;5071870;28;20056;-91
2021/01/10 03:20:00;;;;;;;45.55;15.88;;;;;;;;;;5083252;28;20036;-91
2021/01/10 03:22:34;;;;;;;46.00;13.02;;;;;;;;;;5077311;28;20057;-92
2021/01/10 03:36:42;;;;;;;66.40;17.40;;;0.10;99.90;;;;;;5668072;22;15053017;-90
2021/01/10 03:39:12;;;;;;;54.13;17.45;;;;;;;;;;6325515;22;20398;-88
2021/01/10 03:41:42;;;;;;;48.85;17.63;;;;;;;;;;6304998;22;20023;-89
2021/01/10 03:44:10;;;;;;;41.10;16.38;;;;;;;;;;6253518;22;20015;-91
2021/01/10 03:46:40;;;;;;;56.20;16.77;;;-0.10;99.90;;;;;;6298115;22;20019;-89
2021/01/10 03:49:12;;;;;;;50.33;17.75;;;;;;;;;;6303098;22;20030;-90
2021/01/10 03:51:50;;;;;;;61.13;18.05;;;;;;;;;;6308616;22;20019;-89
2021/01/10 03:54:44;;;;;;;52.60;15.35;;;;;;;;;;6340377;22;20029;-91
2021/01/10 03:57:20;;;;;;;76.38;20.20;;;;;;;;;;6312508;22;20015;-91
2021/01/10 03:59:51;;;;;;;66.38;17.33;;;;;;;;;;6253628;22;20015;-91
2021/01/10 04:02:23;;;;;;;49.67;18.73;;;;;;;;;;6259301;22;20025;-91
2021/01/10 04:05:18;;;;;;;54.67;18.60;;;-0.20;99.90;;;;;;6310375;22;20019;-92
2021/01/10 04:08:07;;;;;;;78.45;21.17;;;;;;;;;;6293480;22;19999;-91
2021/01/10 04:11:12;;;;;;;58.97;16.15;;;;;;;;;;6332563;22;20013;-90
2021/01/10 04:13:57;;;;;;;42.05;16.60;;;;;;;;;;6280843;22;20019;-90
2021/01/10 04:16:27;;;;;;;;;;;0.00;99.90;;;;;;6299353;22;20025;-89
2021/01/10 04:18:58;;;;;;;42.58;14.98;;;;;;;;;;6251128;22;19929;-91
2021/01/10 04:21:33;;;;;;;55.60;17.75;;;0.00;99.90;;;;;;6250446;22;20360;-90
2021/01/10 04:24:05;;;;;;;58.65;18.58;;;;;;;;;;6249885;22;20025;-90
2021/01/10 04:26:47;;;;;;;48.78;13.98;;;0.00;99.90;;;;;;6272884;22;20015;-91
2021/01/10 04:29:42;;;;;;;68.43;18.35;;;;;;;;;;6295638;22;20030;-92
2021/01/10 04:32:24;;;;;;;104.07;19.73;;;;;;;;;;6329066;22;20015;-91
2021/01/10 04:35:02;;;;;;;61.53;19.48;;;;;;;;;;6267869;22;20026;-91
2021/01/10 04:37:35;;;;;;;57.80;17.23;;;;;;;;;;6216669;22;20026;-91
2021/01/10 04:40:21;;;;;;;56.58;19.48;;;;;;;;;;6268386;22;20022;-90
2021/01/10 04:43:41;;;;;;;50.40;16.05;;;;;;;;;;6286252;22;20027;-90
2021/01/10 04:46:32;;;;;;;48.53;14.50;;;;;;;;;;6270538;22;20011;-90
2021/01/10 04:49:18;;;;;;;55.30;16.20;;;;;;;;;;6268772;22;20019;-90
2021/01/10 04:51:56;;;;;;;43.80;13.05;;;;;;;;;;6268067;22;20018;-90
2021/01/10 04:54:39;;;;;;;28.93;12.80;;;-0.10;99.90;;;;;;6241783;22;20023;-93
2021/01/10 04:57:28;;;;;;;48.28;12.93;;;;;;;;;;6266357;22;20233;-90
2021/01/10 05:00:02;;;;;;;34.40;13.30;;;;;;;;;;6218820;22;20012;-89
2021/01/10 05:02:50;;;;;;;45.75;16.05;;;;;;;;;;6239949;22;20355;-90
2021/01/10 05:05:43;;;;;;;46.88;14.98;;;;;;;;;;6270689;22;20020;-90
2021/01/10 05:08:26;;;;;;;51.45;16.17;;;;;;;;;;6245571;22;20016;-92
2021/01/10 05:11:00;;;;;;;40.60;14.85;;;;;;;;;;6267655;22;20027;-90
2021/01/10 05:13:36;;;;;;;43.90;18.48;;;;;;;;;;6292313;22;20012;-90
2021/01/10 05:16:18;;;;;;;41.47;16.02;;;;;;;;;;6267200;22;20022;-90
2021/01/10 05:18:57;;;;;;;61.50;17.02;;;;;;;;;;6237524;22;20008;-90
2021/01/10 05:21:47;;;;;;;51.58;16.90;;;;;;;;;;6250612;22;20020;-92
2021/01/10 05:24:25;;;;;;;57.08;18.58;;;;;;;;;;6223794;22;20339;-91
2021/01/10 05:26:59;;;;;;;63.75;18.95;;;;;;;;;;6264987;22;20024;-92
2021/01/10 05:29:48;;;;;;;47.15;19.30;;;0.10;99.90;;;;;;6245582;22;20024;-91
2021/01/10 05:33:15;;;;;;;43.03;17.45;;;0.10;99.90;;;;;;6220139;22;20023;-93
2021/01/10 05:35:59;;;;;;;116.75;17.17;;;;;;;;;;6221992;22;20026;-91
2021/01/10 05:38:47;;;;;;;47.10;17.13;;;;;;;;;;6266695;22;20034;-90
2021/01/10 05:41:23;;;;;;;41.67;14.85;;;;;;;;;;6242964;22;20020;-91
2021/01/10 05:44:12;;;;;;;61.33;17.65;;;;;;;;;;6243834;22;20026;-91
2021/01/10 05:47:11;;;;;;;52.53;16.30;;;;;;;;;;6247250;22;20024;-89
2021/01/10 05:49:59;;;;;;;46.03;15.93;;;;;;;;;;6245254;22;20023;-92
2021/01/10 05:52:35;;;;;;;36.22;14.95;;;;;;;;;;6271021;22;20030;-92
2021/01/10 05:55:36;;;;;;;63.70;17.05;;;0.10;99.90;;;;;;6270798;22;20026;-92
2021/01/10 05:58:17;;;;;;;51.25;16.27;;;;;;;;;;6253126;22;20030;-92
2021/01/10 06:00:49;;;;;;;71.90;17.77;;;;;;;;;;6272161;22;20020;-91
2021/01/10 06:03:47;;;;;;;45.80;15.15;;;;;;;;;;6264808;22;20020;-90
2021/01/10 06:06:42;;;;;;;37.55;14.73;;;;;;;;;;6243226;22;20030;-91
2021/01/10 06:09:26;;;;;;;31.85;12.95;;;;;;;;;;6272172;22;20018;-92
2021/01/10 06:12:20;;;;;;;85.43;18.73;;;;;;;;;;6267019;22;20019;-91
2021/01/10 06:15:18;;;;;;;37.80;14.85;;;0.00;99.90;;;;;;6272607;22;20282;-91
2021/01/10 06:17:52;;;;;;;50.65;16.38;;;;;;;;;;6245510;22;20019;-91
2021/01/10 06:20:41;;;;;;;72.28;18.73;;;;;;;;;;6270135;22;20045;-92
2021/01/10 06:27:22;;;;;;;65.20;15.15;;;;;;;;;;6269740;22;20030;-91
2021/01/10 06:30:12;;;;;;;34.88;15.68;;;-0.20;99.90;;;;;;6249819;22;20012;-92
2021/01/10 06:33:05;;;;;;;44.63;14.40;;;;;;;;;;6271567;22;20540;-91
2021/01/10 06:35:45;;;;;;;42.80;14.40;;;;;;;;;;6271575;22;20030;-93
2021/01/10 06:38:15;;;;;;;61.40;14.93;;;;;;;;;;6266935;22;20018;-93
2021/01/10 06:41:20;;;;;;;64.53;15.40;;;;;;;;;;6276939;22;20038;-92
2021/01/10 06:44:09;;;;;;;60.63;17.83;;;-0.10;99.90;;;;;;6248925;22;20012;-91
2021/01/10 06:46:48;;;;;;;58.17;16.05;;;;;;;;;;6249286;22;20025;-92
2021/01/10 06:49:42;;;;;;;52.35;17.85;;;-0.10;99.90;;;;;;6273194;22;20008;-92
2021/01/10 06:52:31;;;;;;;32.17;12.88;;;;;;;;;;6233135;22;20079;-92
2021/01/10 06:55:16;;;;;;;48.33;15.82;;;;;;;;;;6226247;22;20015;-91
2021/01/10 06:58:12;;;;;;;40.00;15.57;;;;;;;;;;6252626;22;20024;-92
2021/01/10 07:01:03;;;;;;;63.35;18.63;;;;;;;;;;6270049;22;20026;-89
2021/01/10 07:03:58;;;;;;;42.90;15.63;;;;;;;;;;6251715;22;20019;-92
2021/01/10 07:06:53;;;;;;;57.42;16.65;;;0.00;99.90;;;;;;6246831;22;20020;-92
2021/01/10 07:09:55;;;;;;;47.40;15.18;;;;;;;;;;6298333;22;20075;-91
2021/01/10 07:13:29;;;;;;;43.88;14.32;;;;;;;;;;6261386;22;20022;-94
2021/01/10 07:16:47;;;;;;;38.63;13.15;;;-0.30;99.90;;;;;;6253301;22;20433;-91
2021/01/10 07:19:46;;;;;;;35.22;12.65;;;;;;;;;;6273156;22;20075;-91
2021/01/10 07:22:37;;;;;;;40.13;15.35;;;;;;;;;;6249868;22;20007;-92
2021/01/10 07:25:51;;;;;;;45.65;16.58;;;-0.10;99.90;;;;;;6249523;22;20016;-92
2021/01/10 07:28:36;;;;;;;41.10;15.13;;;;;;;;;;6250352;22;20768;-91
2021/01/10 07:31:18;;;;;;;36.38;13.38;;;;;;;;;;6275372;22;20038;-91
2021/01/10 07:34:10;;;;;;;57.25;16.45;;;;;;;;;;6273912;22;20024;-92
2021/01/10 07:37:07;;;;;;;36.80;15.13;;;;;;;;;;6268755;22;20004;-92
2021/01/10 07:40:06;;;;;;;50.42;16.60;;;;;;;;;;6236916;23;20016;-92
2021/01/10 07:43:20;;;;;;;56.42;18.23;;;-0.20;99.90;;;;;;6242426;23;20023;-93
2021/01/10 07:45:53;;;;;;;52.13;16.42;;;;;;;;;;6240365;23;20024;-93
2021/01/10 07:48:40;;;;;;;39.50;16.77;;;;;;;;;;6242195;23;20026;-93
2021/01/10 07:51:16;;;;;;;37.88;14.40;;;;;;;;;;6265375;23;20024;-92
2021/01/10 07:54:55;;;;;;;51.22;15.05;;;;;;;;;;6263289;23;20020;-91
2021/01/10 07:57:40;;;;;;;51.78;17.52;;;;;;;;;;6232467;23;20022;-92
2021/01/10 08:00:22;;;;;;;70.55;17.23;;;;;;;;;;6239810;23;20024;-91
2021/01/10 08:03:11;;;;;;;62.78;19.33;;;;;;;;;;6208154;23;20016;-92
2021/01/10 08:05:57;;;;;;;57.38;18.88;;;;;;;;;;6214374;23;20020;-93
2021/01/10 08:08:38;;;;;;;57.67;19.08;;;;;;;;;;6260677;23;20016;-92
2021/01/10 08:11:09;;;;;;;63.45;17.48;;;;;;;;;;6258698;23;20020;-94
2021/01/10 08:13:37;;;;;;;60.00;18.73;;;0.00;99.90;;;;;;6234810;23;20012;-89
2021/01/10 08:16:12;;;;;;;58.25;19.40;;;;;;;;;;6233766;23;20027;-91
2021/01/10 08:19:04;;;;;;;42.65;14.95;;;0.10;99.90;;;;;;6209776;23;20016;-94
2021/01/10 08:21:34;;;;;;;64.18;18.63;;;;;;;;;;6236853;23;20026;-92
2021/01/10 08:24:06;;;;;;;48.25;16.55;;;;;;;;;;6233837;23;20023;-92
2021/01/10 08:26:39;;;;;;;48.40;17.88;;;;;;;;;;6229132;23;20030;-91
2021/01/10 08:29:13;;;;;;;56.95;17.67;;;;;;;;;;6211638;23;20022;-91
2021/01/10 08:31:51;;;;;;;49.40;17.20;;;;;;;;;;6231794;23;20020;-92
2021/01/10 08:34:26;;;;;;;67.47;19.70;;;;;;;;;;6254891;23;20026;-93
2021/01/10 08:37:07;;;;;;;57.97;17.33;;;;;;;;;;6229407;23;20016;-92
2021/01/10 08:40:07;;;;;;;59.10;15.82;;;0.40;99.90;;;;;;6260768;22;20020;-93
2021/01/10 08:42:42;;;;;;;59.10;15.13;;;;;;;;;;6236002;23;20022;-91
2021/01/10 08:45:21;;;;;;;53.75;18.15;;;;;;;;;;6187778;23;20020;-91
2021/01/10 08:47:54;;;;;;;49.17;17.88;;;0.30;99.90;;;;;;6284057;22;20020;-89
2021/01/10 08:50:26;;;;;;;80.53;23.48;;;;;;;;;;6235080;23;20016;-89
2021/01/10 08:53:20;;;;;;;52.63;18.08;;;0.30;99.90;;;;;;6261554;23;20026;-88
2021/01/10 08:56:18;;;;;;;53.60;17.42;;;0.30;99.90;;;;;;6213298;23;20020;-90
2021/01/10 08:58:56;;;;;;;40.97;16.92;;;;;;;;;;6234245;23;20019;-89
2021/01/10 09:01:27;;;;;;;46.47;16.85;;;;;;;;;;6259710;23;20023;-88
2021/01/10 09:04:14;;;;;;;59.95;18.73;;;;;;;;;;6227341;23;20028;-89
2021/01/10 09:06:55;;;;;;;51.40;16.10;;;;;;;;;;6260196;23;20024;-89
2021/01/10 09:09:42;;;;;;;50.60;17.85;;;0.40;99.90;;;;;;6263603;23;20034;-89
2021/01/10 09:12:22;;;;;;;91.28;19.55;;;;;;;;;;6264703;23;20070;-91
2021/01/10 09:15:21;;;;;;;54.10;17.92;;;0.20;99.90;;;;;;6260116;23;20020;-89
2021/01/10 09:18:13;;;;;;;41.53;16.95;;;0.40;99.90;;;;;;6235353;23;20532;-88
2021/01/10 09:20:50;;;;;;;43.47;19.60;;;;;;;;;;6257355;23;20464;-90
2021/01/10 09:23:35;;;;;;;51.78;16.20;;;;;;;;;;6261676;23;20115;-89
2021/01/10 09:26:24;;;;;;;61.78;14.73;;;;;;;;;;6238457;23;20016;-88
2021/01/10 09:29:04;;;;;;;43.53;15.45;;;;;;;;;;6214159;23;20016;-91
2021/01/10 09:31:47;;;;;;;52.85;16.75;;;0.50;99.90;;;;;;6236226;23;20027;-88
2021/01/10 09:34:35;;;;;;;44.60;15.35;;;0.50;99.90;;;;;;6224266;23;20016;-89
2021/01/10 09:37:06;;;;;;;58.60;14.75;;;;;;;;;;6203815;23;20027;-88
2021/01/10 09:39:49;;;;;;;33.88;14.68;;;;;;;;;;6204732;23;20024;-88
2021/01/10 09:42:56;;;;;;;45.70;15.35;;;0.60;99.90;;;;;;6180414;23;20023;-90
2021/01/10 09:45:38;;;;;;;36.97;16.80;;;0.60;99.90;;;;;;6215275;23;20016;-92
2021/01/10 09:48:31;;;;;;;41.25;16.50;;;;;;;;;;6207104;23;20023;-89
2021/01/10 09:51:10;;;;;;;47.33;15.88;;;;;;;;;;6180172;23;20027;-88
2021/01/10 09:53:40;;;;;;;48.10;17.48;;;;;;;;;;6219495;23;20029;-89
2021/01/10 09:56:10;;;;;;;39.75;16.00;;;;;;;;;;6178836;23;20023;-88
2021/01/10 09:58:45;;;;;;;35.10;13.23;;;;;;;;;;6185241;23;20080;-89
2021/01/10 10:01:21;;;;;;;42.35;17.88;;;;;;;;;;6232786;23;20024;-88
2021/01/10 10:03:50;;;;;;;40.38;13.82;;;;;;;;;;6180997;23;20030;-91
2021/01/10 10:06:19;;;;;;;40.92;15.80;;;;;;;;;;6200590;23;20122;-90
2021/01/10 10:08:55;;;;;;;36.00;15.82;;;;;;;;;;6200512;23;20021;-87
2021/01/10 10:11:39;;;;;;;40.47;15.35;;;;;;;;;;6184419;23;20012;-90
2021/01/10 10:14:17;;;;;;;38.33;14.95;;;;;;;;;;6232604;23;20038;-90
2021/01/10 10:17:11;;;;;;;32.78;14.43;;;;;;;;;;6204399;23;20031;-89
2021/01/10 10:20:05;;;;;;;42.88;17.33;;;;;;;;;;6234290;23;20017;-91
2021/01/10 10:22:41;;;;;;;36.78;15.90;;;;;;;;;;6205734;23;20027;-90
2021/01/10 10:25:15;;;;;;;43.75;15.07;;;;;;;;;;6228068;23;20035;-90
2021/01/10 10:27:57;;;;;;;56.83;18.48;;;1.10;99.90;;;;;;6201063;23;20050;-90
2021/01/10 10:30:46;;;;;;;40.60;15.38;;;;;;;;;;6181241;23;20013;-89
2021/01/10 10:33:20;;;;;;;38.60;16.58;;;;;;;;;;6198653;23;20024;-91
2021/01/10 10:35:50;;;;;;;45.15;17.30;;;;;;;;;;6203688;23;20016;-90
2021/01/10 10:38:19;;;;;;;34.17;15.23;;;;;;;;;;6197607;23;20027;-90
2021/01/10 10:40:47;;;;;;;35.03;14.95;;;;;;;;;;6224566;23;20021;-90
2021/01/10 10:43:15;;;;;;;38.95;17.45;;;;;;;;;;6220956;23;20024;-91
2021/01/10 10:45:47;;;;;;;45.25;18.10;;;;;;;;;;6220243;23;20016;-89
2021/01/10 10:48:19;;;;;;;48.28;16.80;;;;;;;;;;6223459;23;20024;-89
2021/01/10 10:50:53;;;;;;;44.33;17.42;;;;;;;;;;6224831;23;20025;-90
2021/01/10 10:53:23;;;;;;;40.28;18.83;;;;;;;;;;6206664;23;20041;-88
2021/01/10 10:56:05;;;;;;;43.97;16.77;;;;;;;;;;6232441;23;20021;-89
2021/01/10 10:58:33;;;;;;;41.30;18.80;;;;;;;;;;6198716;23;20019;-89
2021/01/10 11:01:03;;;;;;;55.47;17.10;;;;;;;;;;6207895;23;20012;-88
2021/01/10 11:04:06;;;;;;;48.47;17.23;;;;;;;;;;6208580;23;20020;-90
2021/01/10 11:06:36;;;;;;;43.78;17.00;;;1.40;99.90;;;;;;6225301;23;20024;-89
2021/01/10 11:09:09;;;;;;;43.45;18.85;;;;;;;;;;6201946;23;20023;-88
2021/01/10 11:11:43;;;;;;;43.55;19.30;;;;;;;;;;6208664;23;20025;-89
2021/01/10 11:14:20;;;;;;;44.83;18.38;;;1.50;99.90;;;;;;6227128;23;20024;-89
2021/01/10 11:16:57;;;;;;;41.03;14.82;;;;;;;;;;6229685;23;20016;-88
2021/01/10 11:19:44;;;;;;;37.17;16.98;;;;;;;;;;6203361;23;20020;-90
2021/01/10 11:22:14;;;;;;;46.37;20.20;;;;;;;;;;6222679;23;20023;-90
2021/01/10 11:24:44;;;;;;;41.63;17.00;;;;;;;;;;6222878;23;20025;-90
2021/01/10 11:27:15;;;;;;;37.65;15.60;;;;;;;;;;6223268;23;20028;-90
2021/01/10 11:29:48;;;;;;;43.40;18.13;;;;;;;;;;6202636;23;20335;-89
2021/01/10 11:32:18;;;;;;;39.22;16.83;;;;;;;;;;6200768;23;20031;-88
2021/01/10 11:35:12;;;;;;;44.63;18.90;;;1.50;99.90;;;;;;6223039;23;20009;-88
2021/01/10 11:37:53;;;;;;;40.40;17.42;;;;;;;;;;6221028;23;20027;-89
2021/01/10 11:40:28;;;;;;;36.33;16.58;;;;;;;;;;6198909;23;20020;-88
2021/01/10 11:43:11;;;;;;;34.70;16.05;;;;;;;;;;6200229;23;20017;-89
2021/01/10 11:45:47;;;;;;;34.95;15.73;;;;;;;;;;6198264;22;20029;-89
2021/01/10 11:48:23;;;;;;;41.75;16.23;;;;;;;;;;6163837;23;20027;-89
2021/01/10 11:50:56;;;;;;;45.37;17.50;;;;;;;;;;6143872;23;20028;-90
2021/01/10 11:53:27;;;;;;;55.20;25.40;;;;;;;;;;6167937;23;20035;-89
2021/01/10 11:55:56;;;;;;;48.05;19.08;;;;;;;;;;6149719;23;20028;-89
2021/01/10 11:58:28;;;;;;;41.10;17.35;;;;;;;;;;6137694;23;20017;-88
2021/01/10 12:00:56;;;;;;;41.70;19.25;;;;;;;;;;6139083;23;20017;-87
2021/01/10 12:03:30;;;;;;;39.38;17.40;;;;;;;;;;6143817;23;20029;-88
2021/01/10 12:06:02;;;;;;;37.75;17.00;;;;;;;;;;6145903;23;20020;-90
2021/01/10 12:08:36;;;;;;;43.53;19.90;;;;;;;;;;6139448;23;20357;-88
2021/01/10 12:11:05;;;;;;;41.25;18.33;;;;;;;;;;6136149;23;20028;-89
2021/01/10 12:13:41;;;;;;;44.80;18.40;;;;;;;;;;6112315;23;20024;-91
2021/01/10 12:16:31;;;;;;;34.00;16.05;;;2.00;99.90;;;;;;6120306;23;20014;-91
2021/01/10 12:19:09;;;;;;;43.08;17.98;;;;;;;;;;6145322;23;20029;-91
2021/01/10 12:22:25;;;;;;;48.47;21.20;;;;;;;;;;6123439;23;20028;-92
2021/01/10 12:25:19;;;;;;;37.00;17.95;;;;;;;;;;6120277;23;20032;-93
2021/01/10 12:28:05;;;;;;;50.75;19.67;;;;;;;;;;6143305;23;20027;-91
2021/01/10 12:30:39;;;;;;;46.65;18.95;;;;;;;;;;6140460;23;20028;-89
2021/01/10 12:33:24;;;;;;;40.72;19.95;;;;;;;;;;6143354;23;20032;-91
2021/01/10 12:35:57;;;;;;;51.13;21.00;;;;;;;;;;6139721;23;20021;-91
2021/01/10 12:38:37;;;;;;;52.45;23.25;;;;;;;;;;6137523;23;20025;-90
2021/01/10 12:41:18;;;;;;;46.88;17.63;;;;;;;;;;6086748;23;20026;-89
2021/01/10 12:44:00;;;;;;;38.00;16.83;;;;;;;;;;6112973;23;20029;-90
2021/01/10 12:46:31;;;;;;;;;;;2.30;99.90;;;;;;6139841;23;20748;-89
2021/01/10 12:49:07;;;;;;;45.58;20.25;;;;;;;;;;6116709;23;19921;-90
2021/01/10 12:51:42;;;;;;;42.97;19.55;;;;;;;;;;6134653;23;20022;-88
2021/01/10 12:54:22;;;;;;;42.72;19.70;;;;;;;;;;6108957;23;20014;-90
2021/01/10 12:57:13;;;;;;;40.88;19.33;;;;;;;;;;6140177;23;20018;-89
2021/01/10 13:00:07;;;;;;;52.20;21.00;;;;;;;;;;6115945;23;20480;-90
2021/01/10 13:03:09;;;;;;;43.17;20.77;;;2.60;99.90;;;;;;6140249;23;20018;-90
2021/01/10 13:05:59;;;;;;;47.65;21.63;;;;;;;;;;6115267;23;20022;-89
2021/01/10 13:09:34;;;;;;;;;;;;;;;;;;;;;
2021/01/10 13:12:24;;;;;;;50.83;18.63;;;;;;;;;;6111008;23;20018;-88
2021/01/10 13:14:58;;;;;;;51.85;21.33;;;;;;;;;;6115123;23;20021;-89
2021/01/10 13:17:34;;;;;;;44.15;20.00;;;;;;;;;;6116891;23;20036;-90
2021/01/10 13:20:13;;;;;;;46.00;20.65;;;;;;;;;;6140838;22;20024;-90
2021/01/10 13:23:00;;;;;;;49.63;19.73;;;;;;;;;;6142762;23;20009;-89
2021/01/10 13:26:29;;;;;;;53.53;21.63;;;2.70;99.90;;;;;;6148886;23;20035;-88
2021/01/10 13:33:09;;;;;;;41.83;19.98;;;;;;;;;;6289615;22;20067;-91
2021/01/10 13:36:22;;;;;;;41.17;18.50;;;;;;;;;;6248567;23;20028;-91
2021/01/10 13:39:19;;;;;;;37.15;17.05;;;;;;;;;;6219415;23;20019;-90
2021/01/10 13:42:05;;;;;;;38.25;16.73;;;;;;;;;;6221862;22;20059;-91
2021/01/10 13:44:51;;;;;;;31.98;17.25;;;;;;;;;;6224042;23;20055;-91
2021/01/10 13:48:14;;;;;;;38.60;19.52;;;;;;;;;;6263536;22;20012;-90
2021/01/10 13:51:28;;;;;;;48.63;18.77;;;;;;;;;;6232586;23;20023;-89
2021/01/10 13:54:24;;;;;;;49.80;19.45;;;;;;;;;;6226078;23;20004;-90
2021/01/10 13:57:06;;;;;;;42.10;17.70;;;;;;;;;;6209304;22;20028;-90
2021/01/10 14:00:16;;;;;;;43.08;21.08;;;;;;;;;;6265837;22;20010;-88
2021/01/10 14:03:05;;;;;;;38.55;18.60;;;2.80;99.90;;;;;;6301299;22;20027;-88
2021/01/10 14:05:34;;;;;;;43.53;19.80;;;;;;;;;;6272226;22;20019;-90
2021/01/10 14:08:07;;;;;;;38.95;18.55;;;;;;;;;;6250419;22;20033;-88
2021/01/10 14:10:44;;;;;;;41.67;20.55;;;;;;;;;;6243835;22;20012;-90
2021/01/10 14:13:18;;;;;;;43.63;18.23;;;;;;;;;;6239054;22;20015;-90
2021/01/10 14:15:51;;;;;;;46.45;19.92;;;;;;;;;;6317750;22;20015;-88
2021/01/10 14:18:43;;;;;;;43.83;20.77;;;;;;;;;;6276230;22;20015;-87
2021/01/10 14:21:38;;;;;;;40.28;19.20;;;;;;;;;;6327134;22;20015;-88
2021/01/10 14:24:19;;;;;;;44.22;18.98;;;;;;;;;;6325941;22;20023;-88
2021/01/10 14:27:00;;;;;;;48.85;18.55;;;;;;;;;;6324164;22;20027;-90
2021/01/10 14:29:33;;;;;;;47.35;20.52;;;;;;;;;;6271777;22;20015;-86
2021/01/10 14:32:13;;;;;;;45.30;19.73;;;;;;;;;;6270134;22;20019;-86
2021/01/10 14:35:15;;;;;;;40.85;18.73;;;;;;;;;;6265364;22;20015;-87
2021/01/10 14:37:49;;;;;;;45.50;18.67;;;;;;;;;;6236368;22;20022;-86
2021/01/10 14:40:33;;;;;;;52.35;20.77;;;;;;;;;;6287522;22;20016;-86
2021/01/10 14:43:22;;;;;;;48.90;19.45;;;;;;;;;;6242505;22;20022;-86
2021/01/10 14:46:04;;;;;;;49.33;20.80;;;;;;;;;;6266528;22;20033;-88
2021/01/10 14:48:39;;;;;;;50.07;21.37;;;;;;;;;;6217334;22;20239;-88
2021/01/10 14:51:15;;;;;;;41.60;22.80;;;;;;;;;;6260493;22;20063;-87
2021/01/10 14:53:44;;;;;;;45.72;20.17;;;;;;;;;;6259148;22;20019;-84
2021/01/10 14:56:15;;;;;;;40.35;18.67;;;;;;;;;;6257064;22;20015;-85
2021/01/10 14:58:53;;;;;;;35.95;15.85;;;3.00;99.90;;;;;;6286266;22;20016;-86
2021/01/10 15:01:25;;;;;;;40.40;19.35;;;3.20;99.90;;;;;;6252755;22;20030;-84
2021/01/10 15:03:56;;;;;;;45.90;21.67;;;3.20;99.90;;;;;;6284535;22;20019;-84
2021/01/10 15:06:27;;;;;;;50.20;21.17;;;3.20;99.90;;;;;;6279308;22;20027;-86
2021/01/10 15:08:56;;;;;;;52.25;26.58;;;3.20;99.90;;;;;;6230661;22;20015;-85
2021/01/10 15:11:30;;;;;;;50.65;25.38;;;3.30;99.90;;;;;;6252313;22;20012;-84
2021/01/10 15:14:03;;;;;;;50.55;20.02;;;3.30;99.90;;;;;;6204370;22;20016;-85
2021/01/10 15:16:33;;;;;;;47.15;20.75;;;;;;;;;;6251651;22;20024;-86
2021/01/10 15:19:34;;;;;;;43.40;20.45;;;3.30;99.90;;;;;;6253750;22;20019;-85
2021/01/10 15:22:10;;;;;;;49.75;21.02;;;;;;;;;;6231547;22;20077;-85
2021/01/10 15:24:47;;;;;;;36.70;16.00;;;;;;;;;;6278897;22;20023;-85
2021/01/10 15:27:15;;;;;;;46.58;20.50;;;;;;;;;;6229224;22;20026;-88
2021/01/10 15:29:47;;;;;;;45.03;19.63;;;;;;;;;;6259592;22;20019;-86
2021/01/10 15:32:17;;;;;;;42.42;19.67;;;;;;;;;;6253714;22;20023;-89
2021/01/10 15:34:53;;;;;;;43.08;20.30;;;;;;;;;;6232454;22;20019;-86
2021/01/10 15:37:25;;;;;;;50.08;20.75;;;;;;;;;;6233616;22;20022;-86
2021/01/10 15:39:55;;;;;;;52.60;21.38;;;;;;;;;;6255257;22;20046;-84
2021/01/10 15:42:35;;;;;;;44.83;19.85;;;;;;;;;;6257100;22;20015;-85
2021/01/10 15:45:10;;;;;;;41.53;20.05;;;3.30;99.90;;;;;;6284255;22;20019;-85
2021/01/10 15:47:42;;;;;;;40.28;18.85;;;;;;;;;;6230589;22;20020;-85
2021/01/10 15:50:15;;;;;;;40.80;18.50;;;3.30;99.90;;;;;;6233761;22;20026;-85
2021/01/10 15:52:48;;;;;;;51.13;21.38;;;;;;;;;;6285704;22;20026;-86